Terminal Aerodrome Forecast
Issued by NWS

Home | Current Version | Previous Version | Text Only | Print | Product List | Glossary On
Versions: 1 2 3 4 5 6 7 8 9 10 11 12 13
000
FTUS46 KSEW 292320
TAFBFI
TAF
KBFI 292320Z 3000/3024 30008KT P6SM SKC
     FM300600 VRB03KT P6SM SCT040 SCT200
     FM301100 16006KT P6SM BKN018
     FM301600 18006KT P6SM SCT020 BKN050
     FM302000 20007KT P6SM SCT050 SCT250=

USA.gov is the U.S. government's official web portal to all federal, state and local government web resources and services.